createdAt,value
2019-03-28T05:00:17.080Z,30.00
2019-03-28T05:02:46.719Z,32.87
2019-03-28T05:05:17.399Z,27.50
2019-03-28T05:07:47.050Z,25.60
2019-03-28T05:10:16.739Z,24.10
2019-03-28T05:12:48.979Z,23.00
2019-03-28T05:15:21.199Z,22.77
2019-03-28T05:17:51.262Z,23.83
2019-03-28T05:20:20.875Z,21.73
2019-03-28T05:22:50.931Z,27.57
2019-03-28T05:25:20.248Z,24.10
2019-03-28T05:27:49.956Z,23.60
2019-03-28T05:30:19.352Z,25.57
2019-03-28T05:32:49.067Z,21.77
2019-03-28T05:35:18.820Z,24.30
2019-03-28T05:37:48.860Z,21.77
2019-03-28T05:40:18.196Z,20.63
2019-03-28T05:42:47.680Z,26.07
2019-03-28T05:45:17.102Z,23.17
2019-03-28T05:47:46.709Z,21.53
2019-03-28T05:50:16.028Z,18.50
2019-03-28T05:52:45.550Z,22.00
2019-03-28T05:55:15.368Z,21.50
2019-03-28T05:57:45.000Z,20.33
2019-03-28T06:00:15.492Z,20.53
2019-03-28T06:02:44.833Z,17.23
2019-03-28T06:05:14.616Z,20.90
2019-03-28T06:07:44.430Z,16.77
2019-03-28T06:10:16.539Z,17.73
2019-03-28T06:12:46.403Z,18.47
2019-03-28T06:15:16.324Z,17.30
2019-03-28T06:17:46.028Z,19.27
2019-03-28T06:20:15.816Z,16.53
2019-03-28T06:22:45.478Z,18.33
2019-03-28T06:25:14.890Z,18.40
2019-03-28T06:27:44.301Z,16.17
2019-03-28T06:30:14.395Z,20.47
2019-03-28T06:32:44.599Z,19.97
2019-03-28T06:35:14.299Z,18.57
2019-03-28T06:37:43.861Z,17.63
2019-03-28T06:40:13.816Z,16.70
2019-03-28T06:42:43.141Z,19.90
2019-03-28T06:45:12.824Z,15.70
2019-03-28T06:47:42.161Z,16.97
2019-03-28T06:50:11.843Z,17.23
2019-03-28T06:52:41.752Z,16.20
2019-03-28T06:55:11.743Z,18.47
2019-03-28T06:57:41.075Z,20.07
2019-03-28T07:00:11.390Z,23.77
2019-03-28T07:02:41.100Z,18.00
2019-03-28T07:05:11.277Z,24.97
2019-03-28T07:07:40.618Z,17.20
2019-03-28T07:10:10.999Z,16.43
2019-03-28T07:12:40.808Z,16.70
2019-03-28T07:15:11.132Z,19.17
2019-03-28T07:17:40.998Z,15.63
2019-03-28T07:20:10.960Z,20.43
2019-03-28T07:22:40.294Z,17.03
2019-03-28T07:25:09.680Z,17.13
2019-03-28T07:27:39.022Z,18.37
2019-03-28T07:30:11.064Z,19.87
2019-03-28T07:32:43.315Z,19.80
2019-03-28T07:35:11.959Z,20.30
2019-03-28T07:37:41.698Z,20.17
2019-03-28T07:40:11.176Z,18.17
2019-03-28T07:42:40.849Z,21.20
2019-03-28T07:45:10.855Z,18.77
2019-03-28T07:47:40.237Z,23.47
2019-03-28T07:50:11.703Z,21.10
2019-03-28T07:52:41.310Z,18.17
2019-03-28T07:55:11.671Z,18.80
2019-03-28T07:57:41.493Z,18.87
2019-03-28T08:00:13.494Z,18.57
2019-03-28T08:02:42.872Z,17.63
2019-03-28T08:05:14.667Z,16.57
2019-03-28T08:07:45.605Z,15.27
2019-03-28T08:10:15.725Z,15.97
2019-03-28T08:12:45.076Z,17.57
2019-03-28T08:15:15.167Z,15.87
2019-03-28T08:17:44.620Z,16.97
2019-03-28T08:20:15.718Z,16.40
2019-03-28T08:22:45.920Z,19.10
2019-03-28T08:25:15.825Z,15.43
2019-03-28T08:27:45.839Z,14.40
2019-03-28T08:30:19.582Z,14.57
2019-03-28T08:32:47.008Z,14.07
2019-03-28T08:35:16.399Z,16.00
2019-03-28T08:37:45.888Z,16.03
2019-03-28T08:40:32.657Z,13.37
2019-03-28T08:43:02.252Z,13.23
2019-03-28T08:45:31.557Z,15.53
2019-03-28T08:48:01.231Z,16.07
2019-03-28T08:50:30.694Z,12.53
2019-03-28T08:53:00.471Z,13.43
2019-03-28T08:55:29.913Z,13.37
2019-03-28T08:58:00.087Z,12.53
2019-03-28T09:00:35.143Z,12.27
2019-03-28T09:03:01.261Z,12.23
2019-03-28T09:05:30.726Z,13.63
2019-03-28T09:08:00.036Z,14.33
2019-03-28T09:10:29.443Z,12.53
2019-03-28T09:12:59.393Z,11.83
2019-03-28T09:15:42.669Z,13.60
2019-03-28T09:18:00.449Z,13.17
2019-03-28T09:20:30.371Z,15.97
2019-03-28T09:22:59.933Z,14.13
2019-03-28T09:25:29.629Z,13.17
2019-03-28T09:27:58.944Z,12.87
2019-03-28T09:30:47.370Z,14.10
2019-03-28T09:33:07.634Z,16.33
2019-03-28T09:35:37.335Z,14.17
2019-03-28T09:38:07.408Z,12.80
2019-03-28T09:40:37.147Z,12.47
2019-03-28T09:43:06.768Z,13.00
2019-03-28T09:45:36.436Z,12.43
2019-03-28T09:48:06.091Z,16.40
2019-03-28T09:50:35.479Z,16.23
2019-03-28T09:53:04.884Z,15.07
2019-03-28T09:55:34.591Z,19.37
2019-03-28T09:58:04.355Z,17.90
2019-03-28T10:00:34.728Z,19.40
2019-03-28T10:03:04.357Z,15.97
2019-03-28T10:05:34.091Z,13.83
2019-03-28T10:08:03.556Z,15.17
2019-03-28T10:10:32.896Z,13.53
2019-03-28T10:13:02.712Z,15.27
2019-03-28T10:15:32.047Z,15.10
2019-03-28T10:18:01.432Z,15.83
2019-03-28T10:20:31.421Z,16.73
2019-03-28T10:23:00.808Z,17.37
2019-03-28T10:25:30.533Z,17.00
2019-03-28T10:28:00.272Z,16.47
2019-03-28T10:30:39.079Z,21.60
2019-03-28T10:33:08.977Z,17.60
2019-03-28T10:35:38.660Z,17.73
2019-03-28T10:38:08.203Z,16.70
2019-03-28T10:40:37.557Z,17.37
2019-03-28T10:43:07.268Z,16.57
2019-03-28T10:45:36.649Z,20.47
2019-03-28T10:48:06.620Z,17.27
2019-03-28T10:50:41.669Z,17.00
2019-03-28T10:53:07.679Z,15.73
2019-03-28T10:55:37.333Z,15.50
2019-03-28T10:58:17.824Z,16.30
2019-03-28T11:00:37.824Z,15.13
2019-03-28T11:03:07.588Z,14.27
2019-03-28T11:05:36.944Z,14.53
2019-03-28T11:08:06.757Z,14.93
2019-03-28T11:10:36.147Z,16.67
2019-03-28T11:13:09.274Z,16.40
2019-03-28T11:15:38.131Z,18.13
2019-03-28T11:18:07.540Z,15.67
2019-03-28T11:20:39.889Z,14.13
2019-03-28T11:23:08.857Z,15.50
2019-03-28T11:25:38.194Z,13.23
2019-03-28T11:28:07.602Z,16.40
2019-03-28T11:30:37.256Z,15.67
2019-03-28T11:33:06.721Z,15.20
2019-03-28T11:35:36.129Z,13.90
2019-03-28T11:38:05.541Z,13.13
2019-03-28T11:40:35.224Z,14.80
2019-03-28T11:43:04.602Z,12.57
2019-03-28T11:45:33.988Z,14.30
2019-03-28T11:48:03.651Z,13.60
2019-03-28T11:50:33.343Z,13.20
2019-03-28T11:53:02.665Z,14.13
2019-03-28T11:55:32.656Z,13.50
2019-03-28T11:58:01.975Z,13.47
2019-03-28T12:00:31.696Z,14.87
2019-03-28T12:03:01.003Z,17.30
2019-03-28T12:05:30.337Z,14.57
2019-03-28T12:07:59.989Z,14.23
2019-03-28T12:10:29.620Z,14.53
2019-03-28T12:12:58.931Z,14.83
2019-03-28T12:15:28.264Z,15.60
2019-03-28T12:17:58.139Z,15.77
2019-03-28T12:20:28.045Z,15.57
2019-03-28T12:22:57.436Z,14.57
2019-03-28T12:25:26.747Z,13.80
2019-03-28T12:27:56.440Z,13.87
2019-03-28T12:30:26.256Z,14.63
2019-03-28T12:32:55.948Z,13.10
2019-03-28T12:35:25.324Z,13.50
2019-03-28T12:37:55.159Z,12.43
2019-03-28T12:40:24.615Z,13.87
2019-03-28T12:42:53.968Z,15.67
2019-03-28T12:45:23.344Z,14.00
2019-03-28T12:47:52.659Z,14.83
2019-03-28T12:50:22.083Z,13.17
2019-03-28T12:52:51.478Z,13.47
2019-03-28T12:55:21.177Z,15.10
2019-03-28T12:57:50.784Z,14.30
2019-03-28T13:00:29.536Z,14.77
2019-03-28T13:02:59.208Z,14.77
2019-03-28T13:05:28.527Z,12.57
2019-03-28T13:07:57.843Z,13.77
2019-03-28T13:10:27.504Z,17.67
2019-03-28T13:12:57.655Z,13.70
2019-03-28T13:15:27.324Z,18.20
2019-03-28T13:17:57.568Z,15.13
2019-03-28T13:20:27.155Z,15.37
2019-03-28T13:22:56.713Z,16.87
2019-03-28T13:25:27.082Z,17.90
2019-03-28T13:27:56.757Z,16.37
2019-03-28T13:30:26.216Z,17.80
2019-03-28T13:32:55.624Z,18.97
2019-03-28T13:35:25.088Z,19.63
2019-03-28T13:37:54.420Z,19.33
2019-03-28T13:40:24.436Z,18.47
2019-03-28T13:42:54.452Z,18.87
2019-03-28T13:45:24.166Z,16.93
2019-03-28T13:47:54.467Z,18.57
2019-03-28T13:50:24.112Z,18.27
2019-03-28T13:52:53.460Z,18.33
2019-03-28T13:55:22.789Z,18.97
2019-03-28T13:57:52.496Z,19.30
2019-03-28T14:00:31.229Z,16.27
2019-03-28T14:03:01.041Z,19.23
2019-03-28T14:05:30.451Z,19.70
2019-03-28T14:07:59.748Z,21.07
2019-03-28T14:10:29.113Z,19.60
2019-03-28T14:12:58.451Z,24.63
2019-03-28T14:15:28.043Z,21.33
2019-03-28T14:17:57.429Z,20.90
2019-03-28T14:20:26.928Z,20.23
2019-03-28T14:22:56.320Z,20.90
2019-03-28T14:25:25.655Z,21.67
2019-03-28T14:27:55.368Z,22.73
2019-03-28T14:30:24.701Z,22.50
2019-03-28T14:32:54.067Z,23.93
2019-03-28T14:35:24.385Z,20.87
2019-03-28T14:37:54.069Z,24.63
2019-03-28T14:40:23.727Z,23.27
2019-03-28T14:42:53.407Z,22.40
2019-03-28T14:45:23.038Z,22.37
2019-03-28T14:47:52.452Z,25.43
2019-03-28T14:50:35.924Z,24.17
2019-03-28T14:53:05.609Z,25.87
2019-03-28T14:55:36.497Z,27.60
2019-03-28T14:58:07.085Z,25.23
2019-03-28T15:00:46.952Z,26.47
2019-03-28T15:03:25.647Z,26.33
2019-03-28T15:05:48.261Z,27.00
2019-03-28T15:08:18.412Z,26.87
2019-03-28T15:10:48.172Z,24.57
2019-03-28T15:13:17.816Z,27.60
2019-03-28T15:15:47.992Z,27.33
2019-03-28T15:18:17.313Z,29.37
2019-03-28T15:20:46.716Z,29.50
2019-03-28T15:23:16.401Z,29.07
2019-03-28T15:25:45.829Z,28.53
2019-03-28T15:28:15.821Z,28.60
2019-03-28T15:30:46.044Z,30.13
2019-03-28T15:33:15.788Z,34.50
2019-03-28T15:35:45.720Z,33.67
2019-03-28T15:38:15.692Z,32.87
2019-03-28T15:40:45.171Z,34.57
2019-03-28T15:43:15.228Z,29.97
2019-03-28T15:45:44.610Z,36.67
2019-03-28T15:48:13.983Z,36.53
2019-03-28T15:50:43.927Z,35.43
2019-03-28T15:53:13.263Z,34.83
2019-03-28T15:55:42.911Z,34.13
2019-03-28T15:58:22.688Z,36.13
2019-03-28T16:00:43.778Z,34.50
2019-03-28T16:03:13.260Z,29.90
2019-03-28T16:05:42.604Z,34.07
2019-03-28T16:08:11.944Z,27.93
2019-03-28T16:10:41.337Z,24.97
2019-03-28T16:13:10.964Z,25.20
2019-03-28T16:15:40.312Z,25.73
2019-03-28T16:18:09.903Z,27.23
2019-03-28T16:20:39.251Z,25.03
2019-03-28T16:23:08.563Z,25.60
2019-03-28T16:25:38.416Z,25.17
2019-03-28T16:28:08.127Z,24.73
2019-03-28T16:30:39.756Z,21.87
2019-03-28T16:33:10.101Z,22.77
2019-03-28T16:35:39.491Z,27.97
2019-03-28T16:38:09.035Z,24.77
2019-03-28T16:40:38.896Z,25.67
2019-03-28T16:43:08.939Z,24.30
2019-03-28T16:45:38.639Z,21.23
2019-03-28T16:48:08.283Z,23.63
2019-03-28T16:50:37.687Z,22.57
2019-03-28T16:53:07.424Z,25.67
2019-03-28T16:55:36.818Z,22.97
2019-03-28T16:58:06.580Z,26.30
2019-03-28T17:00:38.548Z,28.07
2019-03-28T17:03:08.876Z,23.77
2019-03-28T17:05:39.249Z,27.40
2019-03-28T17:08:08.852Z,26.80
2019-03-28T17:10:50.452Z,26.70
2019-03-28T17:13:20.200Z,30.40
2019-03-28T17:15:51.018Z,29.03
2019-03-28T17:18:21.043Z,29.17
2019-03-28T17:20:51.005Z,26.23
2019-03-28T17:23:21.078Z,27.83
2019-03-28T17:25:50.890Z,27.60
2019-03-28T17:28:20.602Z,28.60
2019-03-28T17:30:50.311Z,23.00
2019-03-28T17:33:20.123Z,25.63
2019-03-28T17:35:49.937Z,25.97
2019-03-28T17:38:20.042Z,25.63
2019-03-28T17:40:49.358Z,31.37
2019-03-28T17:43:18.758Z,26.53
2019-03-28T17:45:48.144Z,30.37
2019-03-28T17:48:17.815Z,28.00
2019-03-28T17:50:47.480Z,31.60
2019-03-28T17:53:16.877Z,37.57
2019-03-28T17:55:46.191Z,30.43
2019-03-28T17:58:15.870Z,31.23
2019-03-28T18:00:47.487Z,36.00
2019-03-28T18:03:30.173Z,36.50
2019-03-28T18:05:57.887Z,43.80
2019-03-28T18:08:19.902Z,37.60
2019-03-28T18:10:49.934Z,48.20
2019-03-28T18:13:19.307Z,39.63
2019-03-28T18:15:48.716Z,48.90
2019-03-28T18:18:18.365Z,47.33
2019-03-28T18:20:47.957Z,45.90
2019-03-28T18:23:17.782Z,52.77
2019-03-28T18:25:47.690Z,54.73
2019-03-28T18:28:17.472Z,51.43
2019-03-28T18:30:46.943Z,53.50
2019-03-28T18:33:16.932Z,55.00
2019-03-28T18:35:46.385Z,47.57
2019-03-28T18:38:16.408Z,55.33
2019-03-28T18:40:46.682Z,66.77
2019-03-28T18:43:17.067Z,61.90
2019-03-28T18:45:47.008Z,59.83
2019-03-28T18:48:27.424Z,50.07
2019-03-28T18:50:47.770Z,52.07
2019-03-28T18:53:17.275Z,50.70
2019-03-28T18:55:47.278Z,55.77
2019-03-28T18:58:16.601Z,61.93
2019-03-28T19:00:48.120Z,49.27
2019-03-28T19:03:17.979Z,50.07
2019-03-28T19:05:48.696Z,50.13
2019-03-28T19:08:18.443Z,63.50
2019-03-28T19:10:50.822Z,50.50
2019-03-28T19:13:19.255Z,46.47
2019-03-28T19:15:49.768Z,48.43
2019-03-28T19:18:19.715Z,50.60
2019-03-28T19:20:49.100Z,48.83
2019-03-28T19:23:18.719Z,58.53
2019-03-28T19:25:48.398Z,58.77
2019-03-28T19:28:28.191Z,57.97
2019-03-28T19:30:48.897Z,48.47
2019-03-28T19:33:18.512Z,44.53
2019-03-28T19:35:49.352Z,43.13
2019-03-28T19:38:19.267Z,48.10
2019-03-28T19:40:48.629Z,51.70
2019-03-28T19:43:20.983Z,57.27
2019-03-28T19:45:49.223Z,44.80
2019-03-28T19:48:18.587Z,51.80
2019-03-28T19:50:48.151Z,47.27
2019-03-28T19:53:17.932Z,43.83
2019-03-28T19:55:48.136Z,53.40
2019-03-28T19:58:17.863Z,55.23
2019-03-28T20:00:47.183Z,51.23
2019-03-28T20:03:17.006Z,46.37
2019-03-28T20:05:48.460Z,45.27
2019-03-28T20:08:18.329Z,42.37
2019-03-28T20:10:48.479Z,51.80
2019-03-28T20:13:18.084Z,52.30
2019-03-28T20:15:47.451Z,54.40
2019-03-28T20:18:17.095Z,61.70
2019-03-28T20:20:46.924Z,76.57
2019-03-28T20:23:16.551Z,65.60
2019-03-28T20:25:45.864Z,55.40
2019-03-28T20:28:16.362Z,48.30
2019-03-28T20:30:46.256Z,49.67
2019-03-28T20:33:16.009Z,45.60
2019-03-28T20:36:00.556Z,46.40
2019-03-28T20:38:17.771Z,53.10
2019-03-28T20:40:47.194Z,47.13
2019-03-28T20:43:17.156Z,48.67
2019-03-28T20:45:47.078Z,47.80
2019-03-28T20:48:17.054Z,46.70
2019-03-28T20:50:47.001Z,57.93
2019-03-28T20:53:16.720Z,46.93
2019-03-28T20:55:46.600Z,44.33
2019-03-28T20:58:16.227Z,50.13
2019-03-28T21:00:47.318Z,41.53
2019-03-28T21:03:17.612Z,40.17
2019-03-28T21:05:47.356Z,44.80
2019-03-28T21:08:17.116Z,42.77
2019-03-28T21:10:46.927Z,46.63
2019-03-28T21:13:16.301Z,41.63
2019-03-28T21:15:46.175Z,46.37
2019-03-28T21:18:15.557Z,40.47
2019-03-28T21:20:45.211Z,46.70
2019-03-28T21:23:14.988Z,40.27
2019-03-28T21:25:44.372Z,38.13
2019-03-28T21:28:14.374Z,45.70
2019-03-28T21:30:47.739Z,40.27
2019-03-28T21:33:15.962Z,39.60
2019-03-28T21:35:45.389Z,41.40
2019-03-28T21:38:16.294Z,43.50
2019-03-28T21:40:46.432Z,40.30
2019-03-28T21:43:15.831Z,42.23
2019-03-28T21:45:45.939Z,41.20
2019-03-28T21:48:16.896Z,37.47
2019-03-28T21:50:46.671Z,45.73
2019-03-28T21:53:19.710Z,39.07
2019-03-28T21:55:55.181Z,40.37
2019-03-28T21:58:19.311Z,38.93
